createdAt,value
2023-04-15T00:01:01.649Z,10.10
2023-04-15T00:03:34.718Z,10.10
2023-04-15T00:06:05.609Z,10.10
2023-04-15T00:08:35.936Z,10.10
2023-04-15T00:11:07.217Z,10.10
2023-04-15T00:13:39.923Z,10.10
2023-04-15T00:16:11.804Z,10.10
2023-04-15T00:18:42.361Z,10.10
2023-04-15T00:21:13.156Z,10.10
2023-04-15T00:23:44.157Z,10.10
2023-04-15T00:26:14.933Z,10.10
2023-04-15T00:28:48.171Z,10.10
2023-04-15T00:31:19.190Z,10.00
2023-04-15T00:33:50.040Z,10.10
2023-04-15T00:36:20.876Z,10.10
2023-04-15T00:38:51.302Z,10.10
2023-04-15T00:41:23.219Z,10.10
2023-04-15T00:43:55.156Z,10.00
2023-04-15T00:46:28.309Z,10.00
2023-04-15T00:48:59.133Z,10.00
2023-04-15T00:51:31.225Z,9.90
2023-04-15T00:54:02.149Z,9.80
2023-04-15T00:56:36.454Z,9.80
2023-04-15T00:59:08.513Z,9.80
2023-04-15T01:01:39.784Z,9.70
2023-04-15T01:04:11.726Z,9.70
2023-04-15T01:06:42.586Z,9.80
2023-04-15T01:09:14.090Z,9.80
2023-04-15T01:11:45.182Z,9.90
2023-04-15T01:14:17.672Z,9.90
2023-04-15T01:16:49.316Z,9.90
2023-04-15T01:19:21.590Z,9.90
2023-04-15T01:21:53.125Z,9.90
2023-04-15T01:24:24.832Z,9.90
2023-04-15T01:26:57.267Z,9.90
2023-04-15T01:29:28.258Z,9.90
2023-04-15T01:32:01.282Z,9.80
2023-04-15T01:34:50.433Z,9.90
2023-04-15T01:37:39.773Z,9.90
2023-04-15T01:40:11.956Z,9.90
2023-04-15T01:42:45.878Z,9.90
2023-04-15T01:45:18.360Z,10.00
2023-04-15T01:47:50.601Z,9.90
2023-04-15T01:50:27.275Z,9.90
2023-04-15T01:53:02.156Z,9.90
2023-04-15T01:55:34.125Z,9.90
2023-04-15T01:58:07.728Z,9.90
2023-04-15T02:00:39.212Z,9.90
2023-04-15T02:03:11.839Z,9.80
2023-04-15T02:05:44.197Z,9.90
2023-04-15T02:08:16.762Z,9.90
2023-04-15T02:10:48.365Z,9.90
2023-04-15T02:13:22.068Z,10.00
2023-04-15T02:15:54.445Z,10.00
2023-04-15T02:18:26.658Z,9.90
2023-04-15T02:20:58.992Z,9.90
2023-04-15T02:23:31.342Z,9.90
2023-04-15T02:26:03.003Z,9.90
2023-04-15T02:28:41.347Z,10.00
2023-04-15T02:31:13.473Z,9.90
2023-04-15T02:33:45.412Z,9.90
2023-04-15T02:36:45.727Z,9.80
2023-04-15T02:39:18.930Z,9.60
2023-04-15T02:41:52.721Z,9.50
2023-04-15T02:44:26.492Z,9.50
2023-04-15T02:47:06.162Z,9.50
2023-04-15T02:49:38.042Z,9.30
2023-04-15T02:52:10.264Z,9.30
2023-04-15T02:54:42.543Z,9.10
2023-04-15T02:57:14.508Z,9.10
2023-04-15T02:59:48.101Z,9.10
2023-04-15T03:02:20.409Z,9.10
2023-04-15T03:04:56.149Z,9.10
2023-04-15T03:07:28.048Z,9.00
2023-04-15T03:10:00.551Z,8.90
2023-04-15T03:12:32.904Z,8.90
2023-04-15T03:15:08.853Z,8.80
2023-04-15T03:17:44.623Z,8.80
2023-04-15T03:20:17.170Z,8.70
2023-04-15T03:22:48.983Z,8.70
2023-04-15T03:25:21.764Z,8.70
2023-04-15T03:27:53.550Z,8.70
2023-04-15T03:30:27.170Z,8.60
2023-04-15T03:32:58.816Z,8.50
2023-04-15T03:35:31.712Z,8.60
2023-04-15T03:38:03.361Z,8.60
2023-04-15T03:40:35.752Z,8.70
2023-04-15T03:43:07.336Z,8.70
2023-04-15T03:45:40.846Z,8.70
2023-04-15T03:48:17.745Z,8.70
2023-04-15T03:50:50.408Z,8.70
2023-04-15T03:53:24.717Z,8.60
2023-04-15T03:55:56.955Z,8.60
2023-04-15T03:58:28.704Z,8.60
2023-04-15T04:01:02.178Z,8.60
2023-04-15T04:03:33.890Z,8.60
2023-04-15T04:06:06.469Z,8.60
2023-04-15T04:08:38.057Z,8.50
2023-04-15T04:11:10.103Z,8.40
2023-04-15T04:13:42.153Z,8.30
2023-04-15T04:16:16.011Z,8.30
2023-04-15T04:18:47.746Z,8.20
2023-04-15T04:21:20.105Z,8.10
2023-04-15T04:23:51.957Z,8.10
2023-04-15T04:26:24.134Z,8.10
2023-04-15T04:28:55.868Z,8.10
2023-04-15T04:31:29.413Z,8.10
2023-04-15T04:34:01.131Z,8.10
2023-04-15T04:36:33.233Z,8.00
2023-04-15T04:39:04.747Z,8.00
2023-04-15T04:41:36.766Z,8.00
2023-04-15T04:44:08.561Z,8.00
2023-04-15T04:46:41.994Z,8.00
2023-04-15T04:49:13.523Z,8.00
2023-04-15T04:51:47.201Z,8.00
2023-04-15T04:54:18.661Z,8.00
2023-04-15T04:56:50.718Z,8.00
2023-04-15T04:59:22.386Z,7.90
2023-04-15T05:01:56.639Z,8.00
2023-04-15T05:04:28.393Z,7.90
2023-04-15T05:07:00.982Z,8.00
2023-04-15T05:09:33.562Z,7.90
2023-04-15T05:12:07.952Z,8.00
2023-04-15T05:14:40.058Z,8.00
2023-04-15T05:17:14.258Z,8.00
2023-04-15T05:19:46.164Z,8.00
2023-04-15T05:22:18.449Z,8.00
2023-04-15T05:24:51.376Z,8.00
2023-04-15T05:27:25.483Z,8.00
2023-04-15T05:29:56.902Z,8.00
2023-04-15T05:32:30.328Z,7.90
2023-04-15T05:35:02.621Z,8.00
2023-04-15T05:37:35.652Z,8.10
2023-04-15T05:40:10.615Z,8.10
2023-04-15T05:42:42.851Z,8.10
2023-04-15T05:45:14.907Z,8.20
2023-04-15T05:47:50.493Z,8.20
2023-04-15T05:50:22.330Z,8.30
2023-04-15T05:52:54.290Z,8.30
2023-04-15T05:55:25.907Z,8.30
2023-04-15T05:57:57.895Z,8.40
2023-04-15T06:00:29.564Z,8.50
2023-04-15T06:03:03.262Z,8.70
2023-04-15T06:05:34.885Z,8.80
2023-04-15T06:08:08.501Z,9.00
2023-04-15T06:10:40.235Z,9.20
2023-04-15T06:13:12.903Z,9.40
2023-04-15T06:15:44.576Z,9.40
2023-04-15T06:18:17.938Z,9.90
2023-04-15T06:20:49.785Z,10.30
2023-04-15T06:23:22.187Z,10.60
2023-04-15T06:25:53.862Z,10.50
2023-04-15T06:28:25.881Z,10.40
2023-04-15T06:30:57.602Z,10.00
2023-04-15T06:33:33.240Z,10.00
2023-04-15T06:36:05.487Z,9.90
2023-04-15T06:38:37.634Z,9.90
2023-04-15T06:41:09.938Z,9.70
2023-04-15T06:43:42.055Z,9.70
2023-04-15T06:46:14.035Z,9.60
2023-04-15T06:48:47.721Z,9.50
2023-04-15T06:51:19.620Z,9.50
2023-04-15T06:53:51.531Z,9.50
2023-04-15T06:56:23.437Z,9.50
2023-04-15T06:59:01.909Z,9.50
2023-04-15T07:01:35.256Z,9.90
2023-04-15T07:04:08.984Z,10.00
2023-04-15T07:06:43.200Z,10.00
2023-04-15T07:09:16.659Z,9.90
2023-04-15T07:11:53.710Z,10.20
2023-04-15T07:14:26.453Z,10.00
2023-04-15T07:16:59.142Z,10.00
2023-04-15T07:19:32.976Z,10.10
2023-04-15T07:22:05.196Z,9.80
2023-04-15T07:24:37.484Z,9.80
2023-04-15T07:27:09.407Z,9.70
2023-04-15T07:29:42.319Z,9.70
2023-04-15T07:32:14.236Z,9.70
2023-04-15T07:34:47.762Z,9.60
2023-04-15T07:37:22.140Z,9.80
2023-04-15T07:39:56.532Z,10.00
2023-04-15T07:42:29.489Z,10.20
2023-04-15T07:45:01.386Z,10.00
2023-04-15T07:47:32.983Z,10.00
2023-04-15T07:50:09.056Z,10.20
2023-04-15T07:52:40.806Z,9.90
2023-04-15T07:55:12.802Z,9.50
2023-04-15T07:57:44.422Z,9.80
2023-04-15T08:00:17.512Z,10.10
2023-04-15T08:02:50.138Z,9.90
2023-04-15T08:05:24.203Z,10.30
2023-04-15T08:07:55.743Z,10.50
2023-04-15T08:10:28.057Z,10.70
2023-04-15T08:13:00.143Z,11.50
2023-04-15T08:15:33.336Z,11.80
2023-04-15T08:18:05.423Z,11.70
2023-04-15T08:20:40.276Z,11.40
2023-04-15T08:23:13.165Z,11.50
2023-04-15T08:25:45.128Z,11.50
2023-04-15T08:28:17.548Z,11.70
2023-04-15T08:30:49.724Z,11.90
2023-04-15T08:33:23.328Z,12.00
2023-04-15T08:35:57.876Z,11.40
2023-04-15T08:38:30.082Z,11.90
2023-04-15T08:41:20.265Z,12.00
2023-04-15T08:44:08.234Z,12.30
2023-04-15T08:46:42.706Z,12.60
2023-04-15T08:49:16.864Z,12.60
2023-04-15T08:51:51.006Z,12.40
2023-04-15T08:54:23.627Z,12.20
2023-04-15T08:56:56.859Z,12.30
2023-04-15T08:59:28.937Z,12.60
2023-04-15T09:02:02.044Z,13.10
2023-04-15T09:04:34.362Z,13.50
2023-04-15T09:07:08.696Z,13.60
2023-04-15T09:09:42.723Z,13.50
2023-04-15T09:12:19.075Z,13.50
2023-04-15T09:14:51.367Z,13.70
2023-04-15T09:17:25.902Z,13.70
2023-04-15T09:20:11.791Z,13.80
2023-04-15T09:22:47.706Z,13.30
2023-04-15T09:25:34.829Z,13.70
2023-04-15T09:28:07.255Z,14.20
2023-04-15T09:30:39.321Z,14.40
2023-04-15T09:33:11.426Z,14.30
2023-04-15T09:35:43.229Z,14.10
2023-04-15T09:38:16.777Z,14.40
2023-04-15T09:40:48.307Z,14.70
2023-04-15T09:43:20.533Z,14.40
2023-04-15T09:45:54.668Z,14.10
2023-04-15T09:48:28.210Z,14.00
2023-04-15T09:51:01.542Z,14.20
2023-04-15T09:53:38.759Z,14.70
2023-04-15T09:56:11.167Z,14.40
2023-04-15T09:58:43.378Z,14.60
2023-04-15T10:01:15.396Z,14.70
2023-04-15T10:03:48.395Z,14.70
2023-04-15T10:06:20.720Z,14.50
2023-04-15T10:08:55.532Z,14.40
2023-04-15T10:11:31.605Z,14.50
2023-04-15T10:14:04.517Z,14.00
2023-04-15T10:16:39.758Z,13.80
2023-04-15T10:19:12.354Z,14.40
2023-04-15T10:21:45.319Z,15.10
2023-04-15T10:24:19.335Z,14.60
2023-04-15T10:26:52.004Z,14.60
2023-04-15T10:29:25.713Z,14.40
2023-04-15T10:31:57.534Z,14.40
2023-04-15T10:34:30.950Z,14.20
2023-04-15T10:37:04.529Z,14.20
2023-04-15T10:39:46.870Z,13.30
2023-04-15T10:42:20.870Z,13.70
2023-04-15T10:44:57.956Z,13.70
2023-04-15T10:47:30.334Z,14.30
2023-04-15T10:50:03.897Z,14.10
2023-04-15T10:52:35.763Z,14.00
2023-04-15T10:55:17.826Z,13.80
2023-04-15T10:57:53.199Z,13.80
2023-04-15T11:00:30.278Z,13.70
2023-04-15T11:03:08.481Z,13.50
2023-04-15T11:05:54.142Z,13.40
2023-04-15T11:08:58.925Z,14.70
2023-04-15T11:12:10.623Z,14.90
2023-04-15T11:14:43.523Z,15.10
2023-04-15T11:17:15.490Z,15.20
2023-04-15T11:19:47.104Z,14.70
2023-04-15T11:22:18.973Z,14.60
2023-04-15T11:24:52.167Z,14.50
2023-04-15T11:27:26.220Z,14.10
2023-04-15T11:29:58.079Z,14.20
2023-04-15T11:32:29.977Z,14.40
2023-04-15T11:35:01.686Z,14.50
2023-04-15T11:37:34.411Z,14.00
2023-04-15T11:40:07.734Z,13.60
2023-04-15T11:42:49.424Z,13.90
2023-04-15T11:45:22.032Z,14.50
2023-04-15T11:47:54.059Z,14.20
2023-04-15T11:50:26.005Z,14.20
2023-04-15T11:52:58.124Z,14.40
2023-04-15T11:55:28.747Z,14.40
2023-04-15T11:58:12.860Z,14.40
2023-04-15T12:00:49.527Z,14.20
2023-04-15T12:03:24.904Z,14.20
2023-04-15T12:06:16.813Z,14.10
2023-04-15T12:08:59.228Z,14.20
2023-04-15T12:11:36.856Z,14.30
2023-04-15T12:14:22.545Z,14.10
2023-04-15T12:16:58.241Z,14.40
2023-04-15T12:19:32.609Z,14.30
2023-04-15T12:22:05.461Z,14.20
2023-04-15T12:24:38.515Z,14.50
2023-04-15T12:27:11.415Z,14.20
2023-04-15T12:29:44.840Z,14.70
2023-04-15T12:32:17.494Z,14.70
2023-04-15T12:34:54.509Z,14.70
2023-04-15T12:37:26.195Z,14.90
2023-04-15T12:39:56.926Z,14.70
2023-04-15T12:42:27.537Z,14.90
2023-04-15T12:44:59.643Z,15.20
2023-04-15T12:47:30.062Z,15.40
2023-04-15T12:50:01.014Z,15.80
2023-04-15T12:52:31.532Z,15.70
2023-04-15T12:55:02.068Z,15.50
2023-04-15T12:57:33.222Z,15.00
2023-04-15T13:00:08.562Z,14.90
2023-04-15T13:02:39.302Z,15.00
2023-04-15T13:05:10.942Z,15.40
2023-04-15T13:07:41.696Z,15.70
2023-04-15T13:10:13.196Z,15.10
2023-04-15T13:12:43.670Z,15.00
2023-04-15T13:15:20.748Z,14.80
2023-04-15T13:17:51.741Z,14.60
2023-04-15T13:20:22.585Z,14.80
2023-04-15T13:22:55.239Z,14.30
2023-04-15T13:25:26.409Z,14.70
2023-04-15T13:27:57.748Z,14.80
2023-04-15T13:30:31.394Z,14.80
2023-04-15T13:33:01.700Z,14.70
2023-04-15T13:35:33.966Z,14.40
2023-04-15T13:38:04.448Z,14.20
2023-04-15T13:40:35.165Z,14.50
2023-04-15T13:43:05.787Z,14.60
2023-04-15T13:45:38.345Z,13.60
2023-04-15T13:48:09.087Z,14.10
2023-04-15T13:50:41.847Z,14.30
2023-04-15T13:53:12.619Z,14.50
2023-04-15T13:55:43.798Z,14.50
2023-04-15T13:58:14.280Z,14.70
2023-04-15T14:00:46.385Z,15.10
2023-04-15T14:03:17.251Z,14.60
2023-04-15T14:05:48.295Z,14.70
2023-04-15T14:08:19.626Z,14.20
2023-04-15T14:10:50.951Z,13.70
2023-04-15T14:13:21.419Z,13.50
2023-04-15T14:15:53.880Z,13.90
2023-04-15T14:18:27.874Z,13.80
2023-04-15T14:21:00.186Z,14.40
2023-04-15T14:23:30.581Z,14.40
2023-04-15T14:26:01.449Z,14.40
2023-04-15T14:28:32.334Z,15.40
2023-04-15T14:31:04.924Z,15.10
2023-04-15T14:33:35.580Z,15.50
2023-04-15T14:36:07.477Z,15.20
2023-04-15T14:38:39.869Z,14.90
2023-04-15T14:41:10.987Z,14.60
2023-04-15T14:43:41.822Z,14.50
2023-04-15T14:46:14.569Z,14.70
2023-04-15T14:48:45.145Z,14.70
2023-04-15T14:51:16.316Z,14.60
2023-04-15T14:53:47.600Z,14.40
2023-04-15T14:56:18.594Z,14.10
2023-04-15T14:58:49.520Z,15.00
2023-04-15T15:01:22.118Z,15.70
2023-04-15T15:03:52.789Z,14.90
2023-04-15T15:06:24.299Z,15.00
2023-04-15T15:08:54.826Z,16.00
2023-04-15T15:11:25.666Z,15.80
2023-04-15T15:13:56.751Z,16.30
2023-04-15T15:16:30.487Z,16.10
2023-04-15T15:19:01.466Z,16.90
2023-04-15T15:21:32.542Z,15.80
2023-04-15T15:24:02.889Z,16.10
2023-04-15T15:26:34.061Z,16.20
2023-04-15T15:29:06.092Z,16.20
2023-04-15T15:31:38.825Z,16.60
2023-04-15T15:34:09.241Z,16.40
2023-04-15T15:36:41.114Z,15.10
2023-04-15T15:39:12.653Z,15.00
2023-04-15T15:41:44.194Z,14.50
2023-04-15T15:44:15.259Z,14.80
2023-04-15T15:46:47.935Z,14.60
2023-04-15T15:49:19.993Z,14.80
2023-04-15T15:51:51.124Z,14.90
2023-04-15T15:54:23.627Z,13.90
2023-04-15T15:56:54.707Z,14.00
2023-04-15T15:59:27.200Z,14.20
2023-04-15T16:02:00.207Z,14.10
2023-04-15T16:04:31.303Z,13.60
2023-04-15T16:07:04.579Z,13.50
2023-04-15T16:09:35.686Z,13.30
2023-04-15T16:12:08.882Z,13.40
2023-04-15T16:14:39.529Z,13.40
2023-04-15T16:17:12.777Z,13.20
2023-04-15T16:19:58.683Z,13.00
2023-04-15T16:22:25.578Z,13.10
2023-04-15T16:24:57.584Z,12.90
2023-04-15T16:27:29.350Z,13.00
2023-04-15T16:30:00.860Z,13.10
2023-04-15T16:32:45.350Z,13.50
2023-04-15T16:35:19.191Z,13.60
2023-04-15T16:37:55.106Z,13.80
2023-04-15T16:40:27.059Z,13.60
2023-04-15T16:43:00.061Z,13.50
2023-04-15T16:45:30.718Z,13.30
2023-04-15T16:48:16.717Z,13.10
2023-04-15T16:50:49.475Z,12.80
2023-04-15T16:53:20.492Z,12.70
2023-04-15T16:55:51.289Z,12.70
2023-04-15T16:58:22.033Z,12.60
2023-04-15T17:00:52.835Z,12.60
2023-04-15T17:03:25.498Z,12.50
2023-04-15T17:05:56.484Z,12.40
2023-04-15T17:08:27.373Z,12.20
2023-04-15T17:10:59.703Z,12.20
2023-04-15T17:13:34.763Z,12.10
2023-04-15T17:16:07.664Z,12.00
2023-04-15T17:18:47.505Z,12.00
2023-04-15T17:21:22.890Z,12.00
2023-04-15T17:24:00.242Z,11.90
2023-04-15T17:26:37.971Z,11.80
2023-04-15T17:29:09.153Z,11.70
2023-04-15T17:31:45.101Z,11.60
2023-04-15T17:34:50.713Z,11.50
2023-04-15T17:37:41.626Z,11.40
2023-04-15T17:40:32.683Z,11.30
2023-04-15T17:43:23.057Z,11.30
2023-04-15T17:46:13.754Z,11.20
2023-04-15T17:49:06.129Z,11.10
2023-04-15T17:51:58.890Z,11.00
2023-04-15T17:54:49.642Z,10.90
2023-04-15T17:57:40.253Z,10.80
2023-04-15T18:00:30.930Z,10.80
2023-04-15T18:03:22.141Z,10.70
2023-04-15T18:06:13.386Z,10.70
2023-04-15T18:09:05.871Z,10.60
2023-04-15T18:11:56.621Z,10.60
2023-04-15T18:14:47.537Z,10.50
2023-04-15T18:17:38.186Z,10.50
2023-04-15T18:20:19.697Z,10.50
2023-04-15T18:22:51.366Z,10.40
2023-04-15T18:25:24.467Z,10.40
2023-04-15T18:28:02.612Z,10.30
2023-04-15T18:30:33.580Z,10.30
2023-04-15T18:33:07.192Z,10.30
2023-04-15T18:35:38.679Z,10.30
2023-04-15T18:38:11.536Z,10.20
2023-04-15T18:40:43.617Z,10.20
2023-04-15T18:43:13.932Z,10.20
2023-04-15T18:45:45.442Z,10.20
2023-04-15T18:48:17.683Z,10.10
2023-04-15T18:50:54.438Z,10.10
2023-04-15T18:53:25.978Z,10.00
2023-04-15T18:56:01.874Z,10.00
2023-04-15T18:59:26.943Z,10.00
2023-04-15T19:01:26.849Z,10.00
2023-04-15T19:03:57.616Z,9.90
2023-04-15T19:06:31.351Z,10.00
2023-04-15T19:09:02.513Z,9.90
2023-04-15T19:11:40.717Z,9.90
2023-04-15T19:14:15.627Z,9.80
2023-04-15T19:16:48.792Z,9.80
2023-04-15T19:19:25.457Z,9.80
2023-04-15T19:21:58.158Z,9.80
2023-04-15T19:24:31.630Z,9.80
2023-04-15T19:27:09.185Z,9.80
2023-04-15T19:29:42.105Z,9.80
2023-04-15T19:32:15.664Z,9.70
2023-04-15T19:34:47.528Z,9.70
2023-04-15T19:37:19.129Z,9.70
2023-04-15T19:39:50.879Z,9.60
2023-04-15T19:42:24.436Z,9.60
2023-04-15T19:44:58.128Z,9.50
2023-04-15T19:47:32.494Z,9.50
2023-04-15T19:50:11.677Z,9.50
2023-04-15T19:52:44.188Z,9.40
2023-04-15T19:55:17.672Z,9.40
2023-04-15T19:57:51.075Z,9.40
2023-04-15T20:00:23.013Z,9.30
2023-04-15T20:02:57.086Z,9.30
2023-04-15T20:05:32.100Z,9.20
2023-04-15T20:08:13.554Z,9.10
2023-04-15T20:10:46.190Z,9.10
2023-04-15T20:13:19.547Z,9.00
2023-04-15T20:15:50.729Z,9.00
2023-04-15T20:18:24.168Z,8.90
2023-04-15T20:20:55.778Z,8.90
2023-04-15T20:23:30.274Z,8.80
2023-04-15T20:26:06.616Z,8.80
2023-04-15T20:28:39.946Z,8.80
2023-04-15T20:31:12.765Z,8.80
2023-04-15T20:33:44.712Z,8.80
2023-04-15T20:36:16.816Z,8.80
2023-04-15T20:38:49.622Z,8.70
2023-04-15T20:41:21.966Z,8.60
2023-04-15T20:43:55.267Z,8.50
2023-04-15T20:46:27.626Z,8.40
2023-04-15T20:48:58.965Z,8.40
2023-04-15T20:51:37.333Z,8.30
2023-04-15T20:54:11.904Z,8.20
2023-04-15T20:56:44.538Z,8.20
2023-04-15T20:59:17.773Z,8.10
2023-04-15T21:01:49.894Z,8.00
2023-04-15T21:04:22.659Z,8.00
2023-04-15T21:06:53.799Z,8.00
2023-04-15T21:09:25.220Z,8.20
2023-04-15T21:12:01.710Z,8.10
2023-04-15T21:14:35.192Z,7.90
2023-04-15T21:17:11.197Z,7.90
2023-04-15T21:19:42.544Z,7.80
2023-04-15T21:22:13.564Z,7.70
2023-04-15T21:24:44.160Z,7.80
2023-04-15T21:27:14.607Z,7.90
2023-04-15T21:29:46.798Z,7.90
2023-04-15T21:32:17.263Z,7.80
2023-04-15T21:34:48.017Z,7.80
2023-04-15T21:37:18.327Z,7.60
2023-04-15T21:39:49.088Z,7.40
2023-04-15T21:42:19.561Z,7.30
2023-04-15T21:44:51.635Z,7.30
2023-04-15T21:47:22.196Z,7.30
2023-04-15T21:49:52.914Z,7.30
2023-04-15T21:52:23.406Z,7.30
2023-04-15T21:54:54.377Z,7.30
2023-04-15T21:57:24.864Z,7.60
2023-04-15T21:59:57.317Z,7.60
2023-04-15T22:02:28.154Z,7.60
2023-04-15T22:04:59.073Z,7.50
2023-04-15T22:07:29.647Z,7.70
2023-04-15T22:10:00.488Z,7.80
2023-04-15T22:12:31.466Z,7.80
2023-04-15T22:15:03.895Z,7.70
2023-04-15T22:17:34.994Z,7.50
2023-04-15T22:20:06.858Z,7.40
2023-04-15T22:22:43.870Z,7.10
2023-04-15T22:25:16.304Z,7.00
2023-04-15T22:27:46.698Z,7.30
2023-04-15T22:30:20.073Z,7.40
2023-04-15T22:32:50.685Z,7.30
2023-04-15T22:35:21.605Z,7.30
2023-04-15T22:37:53.828Z,7.30
2023-04-15T22:40:25.004Z,7.30
2023-04-15T22:42:55.642Z,7.20
2023-04-15T22:45:41.097Z,7.30
2023-04-15T22:48:12.730Z,7.40
2023-04-15T22:50:45.236Z,7.40
2023-04-15T22:53:17.936Z,7.40
2023-04-15T22:55:49.534Z,7.40
2023-04-15T22:58:21.012Z,7.30
2023-04-15T23:00:53.389Z,7.30
2023-04-15T23:03:23.911Z,7.20
2023-04-15T23:05:54.988Z,7.20
2023-04-15T23:08:25.549Z,7.20
2023-04-15T23:10:56.509Z,7.20
2023-04-15T23:13:26.748Z,7.20
2023-04-15T23:15:59.084Z,7.20
2023-04-15T23:18:29.461Z,7.30
2023-04-15T23:21:00.246Z,7.20
2023-04-15T23:23:31.304Z,7.00
2023-04-15T23:26:04.015Z,7.00
2023-04-15T23:28:34.413Z,6.80
2023-04-15T23:31:07.096Z,6.70
2023-04-15T23:33:38.220Z,6.60
2023-04-15T23:36:09.279Z,6.40
2023-04-15T23:38:39.611Z,6.40
2023-04-15T23:41:12.117Z,6.20
2023-04-15T23:43:42.699Z,6.10
2023-04-15T23:46:14.911Z,6.00
2023-04-15T23:48:47.870Z,6.00
2023-04-15T23:51:18.678Z,6.00
2023-04-15T23:53:49.261Z,5.90
2023-04-15T23:56:20.983Z,5.70
2023-04-15T23:58:51.211Z,5.70
